Delray Beach, FL

8:34 PM EDT on June 03, 2015 (GMT -0400)
Delray Beach | | Change Station
CLOSE
Current Station
Personal Weather Station
Location: Delray Beach, FL
Elevation: 30 ft
Nearby Weather Stations

Elev 30 ft 26.47 °N, 80.09 °W | Updated 50 seconds ago

Partly Cloudy
Partly Cloudy
77.9 °F
Feels Like 80 °F
N
1.1
Wind Variable Wind from NNE
Gusts 2.7 mph

Today
High -- | Low -- °F
--% Chance of Precip.
Yesterday
High -- | Low -- °F
Precip. -- in
6:27 AM 8:09 PM
Full, 98% visible
Pressure 29.90 in
Visibility 10.0 miles
Clouds Few 2100 ft
Scattered Clouds 5500 ft
Scattered Clouds 9000 ft
Mostly Cloudy 25000 ft
Heat Index 80 °F
Dew Point 73 °F
Humidity 84%
Rainfall 0.46 in
Snow Depth Not available.
UV 0 out of 12
Pollen .50 out of 12
Air Quality Not available.
Flu Activity Sporadic
METAR KPMP 032353Z 07006KT 10SM FEW021 SCT055 SCT090 BKN250 26/21 A2990 RMK AO2 SLP125 T02610211 10289 20261 53002

More Conditions Fewer Conditions

Pressure 29.90 in
Visibility 10.0 miles
Clouds Few 2100 ft
Scattered Clouds 5500 ft
Scattered Clouds 9000 ft
Mostly Cloudy 25000 ft
Heat Index 80 °F
Dew Point 73 °F
Humidity 84%
Rainfall 0.46 in
Snow Depth Not available.
UV 0 out of 12
Pollen .50 out of 12
Air Quality Not available.
Flu Activity Sporadic
METAR KPMP 032353Z 07006KT 10SM FEW021 SCT055 SCT090 BKN250 26/21 A2990 RMK AO2 SLP125 T02610211 10289 20261 53002

More Conditions Fewer Conditions

10-Day Weather Forecast

×

Almanac

Astronomy

Jun. 03, 2015 Rise Set
Actual Time
Civil Twilight
Nautical Twilight
Astronomical Twilight
Moon
Length of Visible Light
Length of Day
Tomorrow will be .
, % of the Moon is Illuminated

Today's Extremes

State Highs State Lows

Community

WunderPhotos

Upload Photos

1,826,316 photos uploaded!

WunderBlogs® & News

Nearby

Air Quality

  Air Quality AQ Index Pollutant
Not available.

Snow Depth

Station Depth Elevation

Earthquake Activity

City Distance Mag. Time & Date
Minimum magnitude displayed is 2.5.

Coastal Water Temperatures

Place Temperature

Stations

Nearby Weather Stations

Station Location Temp. Windchill Dew Point Humidity Wind Precip. Elev Updated Type